Key West, FL

4:58 AM EDT on June 03, 2015 (GMT -0400)
Big Coppitt Key Gulfside | | Change Station
CLOSE
Current Station
Personal Weather Station
Location: Key West, FL
Elevation: 31 ft
Nearby Weather Stations

Elev 31 ft 24.60 °N, 81.67 °W | Updated 13 minutes ago

Partly Cloudy
Partly Cloudy
76.5 °F
Feels Like 78 °F
N
3.2
Wind Variable Wind from NE

Today
High -- | Low -- °F
--% Chance of Precip.
Yesterday
High -- | Low -- °F
Precip. -- in
6:37 AM 8:12 PM
Waxing Gibbous, 99% visible
Pressure 29.89 in
Visibility 10.0 miles
Clouds Scattered Clouds 2300 ft
Mostly Cloudy 4300 ft
Mostly Cloudy 6000 ft
Heat Index 78 °F
Dew Point 71 °F
Humidity 82%
Rainfall 0.00 in
Snow Depth Not available.
UV 0 out of 12
Pollen .50 out of 12
Air Quality Not available.
Flu Activity Sporadic
METAR KNQX 030853Z AUTO 11008KT 10SM SCT023 BKN043 BKN060 26/21 A2989 RMK AO2 SLP121 T02560211 56014

More Conditions Fewer Conditions

Pressure 29.89 in
Visibility 10.0 miles
Clouds Scattered Clouds 2300 ft
Mostly Cloudy 4300 ft
Mostly Cloudy 6000 ft
Heat Index 78 °F
Dew Point 71 °F
Humidity 82%
Rainfall 0.00 in
Snow Depth Not available.
UV 0 out of 12
Pollen .50 out of 12
Air Quality Not available.
Flu Activity Sporadic
METAR KNQX 030853Z AUTO 11008KT 10SM SCT023 BKN043 BKN060 26/21 A2989 RMK AO2 SLP121 T02560211 56014

More Conditions Fewer Conditions

Nowcast | as of 4:44 am EDT on June 3, 2015

Widely scattered showers with embedded heavy downpours will meander across the Keys area through 600 am. The strongest of these showers will produce heavy downpours...limiting visibility to near zero...and producing wind gusts near 25 knots over the waters surrounding the island chain. Only a few of these showers will cross the island chain with up to several hundredths of an inch of rainfall...while the most robust events remain off shore.

×

10-Day Weather Forecast

×

Almanac

Astronomy

Jun. 03, 2015 Rise Set
Actual Time
Civil Twilight
Nautical Twilight
Astronomical Twilight
Moon
Length of Visible Light
Length of Day
Tomorrow will be .
, % of the Moon is Illuminated

Today's Extremes

State Highs State Lows

Community

WunderPhotos

Upload Photos

1,826,194 photos uploaded!

WunderBlogs® & News

Nearby

Air Quality

  Air Quality AQ Index Pollutant
Not available.

Snow Depth

Station Depth Elevation

Earthquake Activity

City Distance Mag. Time & Date
Minimum magnitude displayed is 2.5.

Coastal Water Temperatures

Place Temperature

Stations

Nearby Weather Stations

Station Location Temp. Windchill Dew Point Humidity Wind Precip. Elev Updated Type